createdAt,value
2022-11-04T00:00:30.217Z,10.70
2022-11-04T00:03:00.039Z,10.70
2022-11-04T00:05:29.347Z,10.80
2022-11-04T00:08:16.548Z,10.80
2022-11-04T00:11:08.938Z,10.70
2022-11-04T00:13:38.284Z,10.90
2022-11-04T00:18:57.142Z,10.70
2022-11-04T00:21:43.006Z,10.90
2022-11-04T00:24:31.987Z,10.70
2022-11-04T00:27:19.285Z,11.00
2022-11-04T00:29:48.618Z,10.70
2022-11-04T00:32:36.550Z,10.70
2022-11-04T00:37:39.791Z,10.90
2022-11-04T00:40:12.622Z,10.70
2022-11-04T00:42:45.939Z,11.10
2022-11-04T00:45:15.429Z,10.40
2022-11-04T00:47:46.006Z,11.20
2022-11-04T00:50:15.608Z,11.00
2022-11-04T00:52:46.163Z,11.00
2022-11-04T00:55:15.613Z,10.60
2022-11-04T00:57:46.142Z,10.90
2022-11-04T01:02:46.880Z,10.80
2022-11-04T01:05:17.714Z,10.80
2022-11-04T01:07:45.957Z,10.80
2022-11-04T01:10:15.277Z,11.00
2022-11-04T01:12:44.611Z,11.00
2022-11-04T01:15:13.833Z,10.70
2022-11-04T01:17:41.990Z,10.90
2022-11-04T01:20:13.278Z,10.70
2022-11-04T01:22:42.886Z,10.80
2022-11-04T01:25:12.241Z,10.70
2022-11-04T01:27:42.773Z,10.70
2022-11-04T01:30:13.657Z,10.50
2022-11-04T01:32:43.127Z,10.90
2022-11-04T01:35:12.494Z,10.10
2022-11-04T01:40:12.769Z,10.50
2022-11-04T01:42:40.970Z,10.70
2022-11-04T01:47:49.968Z,10.50
2022-11-04T01:50:23.585Z,10.30
2022-11-04T01:52:59.068Z,10.30
2022-11-04T01:55:32.806Z,10.20
2022-11-04T01:58:07.315Z,10.30
2022-11-04T02:00:39.419Z,9.70
2022-11-04T02:03:12.145Z,10.20
2022-11-04T02:05:42.509Z,10.10
2022-11-04T02:10:49.936Z,10.00
2022-11-04T02:13:19.818Z,10.30
2022-11-04T02:16:02.997Z,9.90
2022-11-04T02:18:56.768Z,9.90
2022-11-04T02:22:24.373Z,9.90
2022-11-04T02:25:18.887Z,9.90
2022-11-04T02:28:19.614Z,9.80
2022-11-04T02:30:59.280Z,9.70
2022-11-04T02:33:36.958Z,9.70
2022-11-04T02:36:13.785Z,9.70
2022-11-04T02:38:54.347Z,9.80
2022-11-04T02:41:40.191Z,9.80
2022-11-04T02:44:18.996Z,9.90
2022-11-04T02:46:57.284Z,10.00
2022-11-04T02:49:33.709Z,10.00
2022-11-04T02:52:07.333Z,10.00
2022-11-04T02:54:43.908Z,10.10
2022-11-04T02:57:27.472Z,9.80
2022-11-04T03:00:01.465Z,9.70
2022-11-04T03:02:38.959Z,9.70
2022-11-04T03:05:11.857Z,9.60
2022-11-04T03:07:43.842Z,9.60
2022-11-04T03:10:20.048Z,9.50
2022-11-04T03:12:57.075Z,9.40
2022-11-04T03:15:30.501Z,9.60
2022-11-04T03:18:11.957Z,9.50
2022-11-04T03:20:43.865Z,9.70
2022-11-04T03:23:14.057Z,9.70
2022-11-04T03:25:47.018Z,9.70
2022-11-04T03:28:29.566Z,9.80
2022-11-04T03:31:03.185Z,9.80
2022-11-04T03:33:42.454Z,9.80
2022-11-04T03:36:11.102Z,9.40
2022-11-04T03:38:41.107Z,9.90
2022-11-04T03:41:17.119Z,9.80
2022-11-04T03:43:47.796Z,9.80
2022-11-04T03:46:17.222Z,9.50
2022-11-04T03:48:47.423Z,9.20
2022-11-04T03:51:16.829Z,9.40
2022-11-04T03:53:46.656Z,9.30
2022-11-04T03:56:57.310Z,9.30
2022-11-04T03:59:52.887Z,9.40
2022-11-04T04:02:28.391Z,9.20
2022-11-04T04:05:03.381Z,9.40
2022-11-04T04:07:39.436Z,9.40
2022-11-04T04:10:29.697Z,9.50
2022-11-04T04:13:03.740Z,9.50
2022-11-04T04:15:44.147Z,9.40
2022-11-04T04:18:17.769Z,8.80
2022-11-04T04:20:50.483Z,9.30
2022-11-04T04:23:42.098Z,9.40
2022-11-04T04:26:31.869Z,9.40
2022-11-04T04:29:04.441Z,9.40
2022-11-04T04:31:53.862Z,9.40
2022-11-04T04:34:27.794Z,9.50
2022-11-04T04:37:04.505Z,9.00
2022-11-04T04:39:59.096Z,8.60
2022-11-04T04:42:44.885Z,9.40
2022-11-04T04:45:26.032Z,8.80
2022-11-04T04:47:55.647Z,8.90
2022-11-04T04:50:29.671Z,8.90
2022-11-04T04:53:02.333Z,8.90
2022-11-04T04:55:34.334Z,9.10
2022-11-04T04:58:08.082Z,9.00
2022-11-04T05:00:37.472Z,9.80
2022-11-04T05:03:07.416Z,9.20
2022-11-04T05:05:35.753Z,9.30
2022-11-04T05:08:11.739Z,9.50
2022-11-04T05:10:41.384Z,9.80
2022-11-04T05:13:31.430Z,9.10
2022-11-04T05:16:05.809Z,9.40
2022-11-04T05:18:35.395Z,9.70
2022-11-04T05:21:06.494Z,9.30
2022-11-04T05:23:38.480Z,9.60
2022-11-04T05:26:07.928Z,10.00
2022-11-04T05:28:37.461Z,9.60
2022-11-04T05:31:07.774Z,9.20
2022-11-04T05:33:37.293Z,9.90
2022-11-04T05:36:09.681Z,9.60
2022-11-04T05:38:42.430Z,9.80
2022-11-04T05:41:25.812Z,9.50
2022-11-04T05:43:58.527Z,9.70
2022-11-04T05:46:28.644Z,9.70
2022-11-04T05:48:57.454Z,10.20
2022-11-04T05:51:28.959Z,9.70
2022-11-04T05:53:58.516Z,9.80
2022-11-04T05:58:56.730Z,9.30
2022-11-04T06:01:31.415Z,9.70
2022-11-04T06:04:04.090Z,9.50
2022-11-04T06:06:35.432Z,9.60
2022-11-04T06:09:06.483Z,9.70
2022-11-04T06:11:35.813Z,9.50
2022-11-04T06:14:05.438Z,9.70
2022-11-04T06:16:35.855Z,9.30
2022-11-04T06:19:08.547Z,9.50
2022-11-04T06:21:41.411Z,9.60
2022-11-04T06:24:12.098Z,7.90
2022-11-04T06:26:40.361Z,9.60
2022-11-04T06:29:11.696Z,9.50
2022-11-04T06:31:41.093Z,9.50
2022-11-04T06:34:10.485Z,9.30
2022-11-04T06:36:38.655Z,9.20
2022-11-04T06:39:09.461Z,9.40
2022-11-04T06:41:39.053Z,9.00
2022-11-04T06:44:07.214Z,9.00
2022-11-04T06:46:40.574Z,8.90
2022-11-04T06:49:14.437Z,8.80
2022-11-04T06:51:44.433Z,8.80
2022-11-04T06:54:15.328Z,8.90
2022-11-04T06:56:47.264Z,9.00
2022-11-04T06:59:19.379Z,9.00
2022-11-04T07:04:18.961Z,9.10
2022-11-04T07:06:47.149Z,9.10
2022-11-04T07:11:48.638Z,9.20
2022-11-04T07:14:19.226Z,9.10
2022-11-04T07:16:51.343Z,9.30
2022-11-04T07:19:21.960Z,9.40
2022-11-04T07:21:51.490Z,9.30
2022-11-04T07:24:21.083Z,9.50
2022-11-04T07:26:50.753Z,9.50
2022-11-04T07:29:20.337Z,9.60
2022-11-04T07:31:49.729Z,9.50
2022-11-04T07:34:18.382Z,9.80
2022-11-04T07:36:47.776Z,9.50
2022-11-04T07:39:18.454Z,9.60
2022-11-04T07:41:47.854Z,9.80
2022-11-04T07:44:18.770Z,9.50
2022-11-04T07:46:48.016Z,9.70
2022-11-04T07:49:18.094Z,10.00
2022-11-04T07:51:48.616Z,10.30
2022-11-04T07:54:18.048Z,9.40
2022-11-04T07:56:46.147Z,9.70
2022-11-04T07:59:18.092Z,9.70
2022-11-04T08:04:17.478Z,9.50
2022-11-04T08:06:46.993Z,10.30
2022-11-04T08:09:15.131Z,10.40
2022-11-04T08:11:43.336Z,10.60
2022-11-04T08:14:12.738Z,11.00
2022-11-04T08:16:42.401Z,10.60
2022-11-04T08:19:12.174Z,10.90
2022-11-04T08:21:40.340Z,10.90
2022-11-04T08:24:10.987Z,10.70
2022-11-04T08:26:40.455Z,11.10
2022-11-04T08:31:39.864Z,11.00
2022-11-04T08:34:12.905Z,10.80
2022-11-04T08:36:42.990Z,11.10
2022-11-04T08:39:13.498Z,11.10
2022-11-04T08:41:45.492Z,11.00
2022-11-04T08:44:16.018Z,11.30
2022-11-04T08:46:46.711Z,11.40
2022-11-04T08:49:21.352Z,11.00
2022-11-04T08:51:56.614Z,11.00
2022-11-04T08:54:25.391Z,11.20
2022-11-04T08:56:55.528Z,11.20
2022-11-04T09:01:54.296Z,11.40
2022-11-04T09:04:25.046Z,11.60
2022-11-04T09:06:56.198Z,11.40
2022-11-04T09:09:27.076Z,11.30
2022-11-04T09:11:55.302Z,11.20
2022-11-04T09:14:26.146Z,10.90
2022-11-04T09:16:57.769Z,11.20
2022-11-04T09:19:29.945Z,11.20
2022-11-04T09:21:59.357Z,11.30
2022-11-04T09:24:28.884Z,11.60
2022-11-04T09:26:57.022Z,11.20
2022-11-04T09:31:57.431Z,11.20
2022-11-04T09:36:58.632Z,11.40
2022-11-04T09:39:29.658Z,11.40
2022-11-04T09:42:15.126Z,11.30
2022-11-04T09:45:19.903Z,11.70
2022-11-04T09:47:45.274Z,11.60
2022-11-04T09:50:25.875Z,11.40
2022-11-04T09:53:02.708Z,11.40
2022-11-04T09:55:42.889Z,12.00
2022-11-04T09:58:14.996Z,11.50
2022-11-04T10:00:52.223Z,11.40
2022-11-04T10:03:41.019Z,11.70
2022-11-04T10:06:39.010Z,12.10
2022-11-04T10:09:30.016Z,12.20
2022-11-04T10:12:12.750Z,12.10
2022-11-04T10:15:33.163Z,12.10
2022-11-04T10:18:18.125Z,11.90
2022-11-04T10:20:58.081Z,11.80
2022-11-04T10:23:35.304Z,11.40
2022-11-04T10:26:16.101Z,11.90
2022-11-04T10:28:53.643Z,12.70
2022-11-04T10:31:23.327Z,12.00
2022-11-04T10:33:56.258Z,12.10
2022-11-04T10:36:27.156Z,12.10
2022-11-04T10:38:58.820Z,12.20
2022-11-04T10:41:35.568Z,12.30
2022-11-04T10:44:09.479Z,12.10
2022-11-04T10:46:55.238Z,12.10
2022-11-04T10:52:52.179Z,12.40
2022-11-04T10:55:37.983Z,12.60
2022-11-04T10:58:18.447Z,14.00
2022-11-04T11:00:48.024Z,15.10
2022-11-04T11:03:31.220Z,15.90
2022-11-04T11:06:23.331Z,16.40
2022-11-04T11:08:53.994Z,16.90
2022-11-04T11:11:45.456Z,17.00
2022-11-04T11:14:35.098Z,17.40
2022-11-04T11:17:26.514Z,16.40
2022-11-04T11:20:05.222Z,15.30
2022-11-04T11:22:38.823Z,14.80
2022-11-04T11:25:24.157Z,14.70
2022-11-04T11:27:58.878Z,15.30
2022-11-04T11:30:33.266Z,14.70
2022-11-04T11:33:09.248Z,14.90
2022-11-04T11:35:44.628Z,15.20
2022-11-04T11:38:24.738Z,15.90
2022-11-04T11:41:23.344Z,15.30
2022-11-04T11:43:54.144Z,15.30
2022-11-04T11:46:25.504Z,15.00
2022-11-04T11:49:00.954Z,15.10
2022-11-04T11:51:33.315Z,15.70
2022-11-04T11:54:19.299Z,14.70
2022-11-04T12:02:50.513Z,13.50
2022-11-04T12:11:28.539Z,14.30
2022-11-04T12:14:04.966Z,15.70
2022-11-04T12:16:44.818Z,16.90
2022-11-04T12:19:41.293Z,17.80
2022-11-04T12:22:21.415Z,18.70
2022-11-04T12:25:05.041Z,19.40
2022-11-04T12:27:43.016Z,19.60
2022-11-04T12:30:17.531Z,19.50
2022-11-04T12:33:10.184Z,19.80
2022-11-04T12:35:54.003Z,19.90
2022-11-04T12:38:53.222Z,19.70
2022-11-04T12:41:58.978Z,19.90
2022-11-04T12:44:34.501Z,19.60
2022-11-04T12:47:24.025Z,18.70
2022-11-04T12:53:02.282Z,16.50
2022-11-04T12:55:44.527Z,17.20
2022-11-04T12:58:30.876Z,17.70
2022-11-04T13:01:10.975Z,17.40
2022-11-04T13:03:51.977Z,16.50
2022-11-04T13:06:30.220Z,15.50
2022-11-04T13:09:06.490Z,14.90
2022-11-04T13:11:43.329Z,14.60
2022-11-04T13:14:20.998Z,14.60
2022-11-04T13:16:52.703Z,14.20
2022-11-04T13:19:28.984Z,14.50
2022-11-04T13:22:06.792Z,14.20
2022-11-04T13:24:39.789Z,13.80
2022-11-04T13:27:20.484Z,13.40
2022-11-04T13:29:52.749Z,13.10
2022-11-04T13:37:45.745Z,14.60
2022-11-04T13:40:21.076Z,14.40
2022-11-04T13:43:42.902Z,15.30
2022-11-04T13:46:26.303Z,15.30
2022-11-04T13:54:30.571Z,17.60
2022-11-04T13:57:16.307Z,17.70
2022-11-04T14:00:20.687Z,18.80
2022-11-04T14:02:49.784Z,18.50
2022-11-04T14:06:01.601Z,18.30
2022-11-04T14:08:30.026Z,18.30
2022-11-04T14:11:10.271Z,18.30
2022-11-04T14:14:20.307Z,18.20
2022-11-04T14:16:49.647Z,18.50
2022-11-04T14:19:59.831Z,17.40
2022-11-04T14:22:47.994Z,17.30
2022-11-04T14:25:33.742Z,17.20
2022-11-04T14:28:25.324Z,17.30
2022-11-04T14:30:56.380Z,17.50
2022-11-04T14:33:42.529Z,17.70
2022-11-04T14:36:34.587Z,17.90
2022-11-04T14:39:21.739Z,18.00
2022-11-04T14:42:13.276Z,17.70
2022-11-04T14:44:50.022Z,17.50
2022-11-04T14:47:21.525Z,17.20
2022-11-04T14:49:55.167Z,16.90
2022-11-04T14:52:28.866Z,16.70
2022-11-04T14:55:06.301Z,15.90
2022-11-04T14:57:42.494Z,16.10
2022-11-04T15:00:37.063Z,15.50
2022-11-04T15:03:41.139Z,14.70
2022-11-04T15:08:43.898Z,13.70
2022-11-04T15:11:18.341Z,13.50
2022-11-04T15:21:25.512Z,12.40
2022-11-04T15:23:56.728Z,12.40
2022-11-04T15:34:13.287Z,11.90
2022-11-04T15:36:45.132Z,11.80
2022-11-04T15:39:17.801Z,11.70
2022-11-04T15:42:06.732Z,11.70
2022-11-04T15:50:16.967Z,11.50
2022-11-04T15:52:54.217Z,11.50
2022-11-04T16:03:01.902Z,11.20
2022-11-04T16:05:33.644Z,11.30
2022-11-04T16:10:52.521Z,11.30
2022-11-04T16:13:25.755Z,11.30
2022-11-04T16:16:08.988Z,11.30
2022-11-04T16:21:23.082Z,11.30
2022-11-04T16:26:31.004Z,11.10
2022-11-04T16:31:34.255Z,11.10
2022-11-04T16:34:10.891Z,11.30
2022-11-04T16:36:41.536Z,11.10
2022-11-04T16:41:41.944Z,11.10
2022-11-04T16:44:23.375Z,11.10
2022-11-04T16:46:54.268Z,11.10
2022-11-04T16:51:58.415Z,11.00
2022-11-04T16:54:27.959Z,11.20
2022-11-04T16:56:59.579Z,11.10
2022-11-04T16:59:27.931Z,11.00
2022-11-04T17:01:56.645Z,10.90
2022-11-04T17:06:56.098Z,10.90
2022-11-04T17:11:54.142Z,10.90
2022-11-04T17:14:23.573Z,10.40
2022-11-04T17:16:51.846Z,10.10
2022-11-04T17:19:21.258Z,9.70
2022-11-04T17:24:21.725Z,9.70
2022-11-04T17:26:51.243Z,9.30
2022-11-04T17:29:20.560Z,9.30
2022-11-04T17:31:49.936Z,9.30
2022-11-04T17:34:19.481Z,9.30
2022-11-04T17:39:18.857Z,9.10
2022-11-04T17:42:04.642Z,9.10
2022-11-04T17:49:30.711Z,8.90
2022-11-04T17:57:03.431Z,8.80
2022-11-04T17:59:36.742Z,8.90
2022-11-04T18:02:05.289Z,8.90
2022-11-04T18:04:35.402Z,8.90
2022-11-04T18:07:06.218Z,8.90
2022-11-04T18:09:36.314Z,8.90
2022-11-04T18:12:24.762Z,8.80
2022-11-04T18:14:54.179Z,9.20
2022-11-04T18:17:26.065Z,9.00
2022-11-04T18:19:55.569Z,8.60
2022-11-04T18:27:28.858Z,8.60
2022-11-04T18:32:29.278Z,8.60
2022-11-04T18:34:58.748Z,8.70
2022-11-04T18:37:30.874Z,8.60
2022-11-04T18:40:00.400Z,8.60
2022-11-04T18:47:28.194Z,8.50
2022-11-04T18:49:57.748Z,8.60
2022-11-04T18:59:56.702Z,8.00
2022-11-04T19:02:26.436Z,8.10
2022-11-04T19:04:56.119Z,7.90
2022-11-04T19:07:25.503Z,8.50
2022-11-04T19:09:55.040Z,8.00
2022-11-04T19:12:44.428Z,7.80
2022-11-04T19:15:15.026Z,7.70
2022-11-04T19:20:14.713Z,7.40
2022-11-04T19:22:42.926Z,7.20
2022-11-04T19:25:12.452Z,7.20
2022-11-04T19:27:43.163Z,6.50
2022-11-04T19:30:14.180Z,7.00
2022-11-04T19:32:42.328Z,6.90
2022-11-04T19:35:13.041Z,6.90
2022-11-04T19:37:42.425Z,6.70
2022-11-04T19:40:12.932Z,6.70
2022-11-04T19:43:01.058Z,6.60
2022-11-04T19:45:31.656Z,6.40
2022-11-04T19:47:59.794Z,6.60
2022-11-04T19:52:57.677Z,6.70
2022-11-04T19:55:27.419Z,6.30
2022-11-04T19:57:56.936Z,6.40
2022-11-04T20:00:25.546Z,6.30
2022-11-04T20:02:54.897Z,6.30
2022-11-04T20:05:23.264Z,6.60
2022-11-04T20:07:54.903Z,6.20
2022-11-04T20:13:13.951Z,6.30
2022-11-04T20:15:43.349Z,6.20
2022-11-04T20:18:12.834Z,6.40
2022-11-04T20:20:42.460Z,6.30
2022-11-04T20:23:11.818Z,6.00
2022-11-04T20:25:39.999Z,6.20
2022-11-04T20:28:09.796Z,6.20
2022-11-04T20:30:41.255Z,6.10
2022-11-04T20:35:41.023Z,6.20
2022-11-04T20:38:10.143Z,6.10
2022-11-04T20:40:40.875Z,6.20
2022-11-04T20:43:10.467Z,6.20
2022-11-04T20:45:40.512Z,6.20
2022-11-04T20:50:38.758Z,6.20
2022-11-04T20:53:06.863Z,7.00
2022-11-04T20:55:40.223Z,6.20
2022-11-04T20:58:08.589Z,6.20
2022-11-04T21:03:09.306Z,5.80
2022-11-04T21:05:38.636Z,6.20
2022-11-04T21:08:08.483Z,6.80
2022-11-04T21:13:08.348Z,6.30
2022-11-04T21:23:16.287Z,6.40
2022-11-04T21:25:49.088Z,6.40
2022-11-04T21:28:18.029Z,6.40
2022-11-04T21:40:51.632Z,6.50
2022-11-04T21:43:21.224Z,6.40
2022-11-04T21:48:20.508Z,6.40
2022-11-04T21:50:50.054Z,6.40
2022-11-04T21:53:19.500Z,6.60
2022-11-04T21:55:50.216Z,6.60
2022-11-04T21:58:18.353Z,6.30
2022-11-04T22:00:55.863Z,6.30
2022-11-04T22:06:02.774Z,6.30
2022-11-04T22:08:31.881Z,6.30
2022-11-04T22:11:10.153Z,6.20
2022-11-04T22:13:39.884Z,6.50
2022-11-04T22:16:14.594Z,6.20
2022-11-04T22:18:44.529Z,6.30
2022-11-04T22:21:19.094Z,6.20
2022-11-04T22:23:47.383Z,6.20
2022-11-04T22:26:19.924Z,6.20
2022-11-04T22:28:49.937Z,6.10
2022-11-04T22:31:21.409Z,6.20
2022-11-04T22:33:51.448Z,6.10
2022-11-04T22:36:21.649Z,6.10
2022-11-04T22:41:25.707Z,6.10
2022-11-04T22:43:53.870Z,6.30
2022-11-04T22:46:26.132Z,5.60
2022-11-04T22:48:56.823Z,6.20
2022-11-04T22:51:26.458Z,6.20
2022-11-04T22:54:01.410Z,6.20
2022-11-04T22:56:34.181Z,6.20
2022-11-04T22:59:02.710Z,6.10
2022-11-04T23:01:32.678Z,6.20
2022-11-04T23:04:02.594Z,6.10
2022-11-04T23:06:32.603Z,6.40
2022-11-04T23:09:01.320Z,6.20
2022-11-04T23:14:47.783Z,5.90
2022-11-04T23:20:12.156Z,6.50
2022-11-04T23:22:58.488Z,6.40
2022-11-04T23:28:13.452Z,6.50
2022-11-04T23:30:44.319Z,6.50
2022-11-04T23:33:15.820Z,6.70
2022-11-04T23:36:07.468Z,6.50
2022-11-04T23:38:36.803Z,6.40
2022-11-04T23:43:53.969Z,6.30
2022-11-04T23:46:43.500Z,6.10
2022-11-04T23:49:31.014Z,6.10
2022-11-04T23:52:18.123Z,5.90
2022-11-04T23:55:05.322Z,6.00
2022-11-04T23:57:52.481Z,6.20
